Airfield :
LOGIN :

Register | Disclaimer

   EN    FR    IT 

 










Legend :    VFR   Marginal VFR   IFR   Intensive IFR   Very Intensive IFR
Visi :
Ceiling :
>= 8 km
>= 3000ft
5 to 8 km
1000 to 3000 ft
1500m to 5 km
500 to 1000 ft
800 to 1500m
200 to 500 ft
< 800m
< 200 ft
Symbols :   Thunderstorms  Fog  Heavy snow  Heavy precipitations  Wind > 20 kt
SIGMETs :     Misc.  Thunderstorms  Icing  Turbulence  Mountain Waves  Volcanic Ashes







- Airport Elevation : 160 ft
- IATA code : LRT
- Download approach charts


LFRH - Lorient Lann Bihoue

CURRENT METAR :
  • 202000Z AUTO 27007KT CAVOK 18/16 Q1018 NOSIG

EXPIRED METARs :
  • 201930Z AUTO 26010KT CAVOK 18/16 Q1018 NOSIG
  • 201900Z AUTO 27011KT CAVOK 19/16 Q1018 NOSIG
  • 201830Z AUTO 26011KT CAVOK 20/16 Q1017 NOSIG
  • 201800Z AUTO 26013KT CAVOK 20/16 Q1017 NOSIG
  • 201730Z AUTO 27014KT 9999 FEW033 20/16 Q1017 NOSIG

TAF TAF LFRH
Valid from the 20 at 18:00 until the 21 at 18:00 UTC


201700Z 2018/2118 25012G22KT CAVOK
BECMG 2018/2020 26010KT SCT025
BECMG 2022/2024 VRB03KT
TEMPO 2100/2106 3000 BR BKN003
BECMG 2106/2108 BKN008
BECMG 2108/2110 NSC
BECMG 2110/2112 24010KT
No reported NOTAMs for that airfield.



MET'MAP, your aeronautical weather chart ! - Copyright ORBIFLY December 2007 - Disclaimer

ORBIFLY MET'MAP TEAM :

Programming & Development : Alexandra Zaïnal
Concept & Development : Baudouin d'Aumeries
Co-Development & Prog : Marc-Olivier Méhu
Technical & hardware support : Manuel Goepfert

Contact : metmap@orbifly.com




SOURCES & CREDITS :

   NOAA